createdAt,value
2023-09-03T00:00:44.271Z,5.38
2023-09-03T00:03:11.340Z,5.18
2023-09-03T00:05:38.658Z,6.05
2023-09-03T00:08:05.905Z,6.03
2023-09-03T00:10:36.421Z,5.85
2023-09-03T00:13:04.834Z,5.25
2023-09-03T00:15:32.335Z,5.03
2023-09-03T00:17:59.744Z,5.60
2023-09-03T00:20:26.801Z,4.82
2023-09-03T00:22:54.123Z,5.18
2023-09-03T00:25:21.004Z,5.10
2023-09-03T00:27:47.914Z,4.95
2023-09-03T00:30:15.065Z,5.30
2023-09-03T00:32:42.019Z,5.63
2023-09-03T00:35:09.501Z,5.13
2023-09-03T00:37:37.359Z,5.10
2023-09-03T00:40:04.593Z,5.38
2023-09-03T00:42:31.930Z,6.18
2023-09-03T00:44:59.260Z,5.40
2023-09-03T00:47:26.635Z,4.85
2023-09-03T00:49:54.097Z,5.32
2023-09-03T00:52:22.938Z,5.25
2023-09-03T00:54:50.363Z,5.10
2023-09-03T00:57:17.655Z,4.82
2023-09-03T00:59:46.617Z,4.70
2023-09-03T01:02:17.794Z,5.22
2023-09-03T01:04:45.072Z,5.10
2023-09-03T01:07:13.148Z,5.32
2023-09-03T01:09:41.542Z,5.82
2023-09-03T01:12:16.317Z,5.82
2023-09-03T01:14:45.893Z,5.30
2023-09-03T01:17:13.792Z,5.45
2023-09-03T01:20:01.901Z,5.40
2023-09-03T01:22:56.532Z,5.68
2023-09-03T01:25:49.972Z,5.10
2023-09-03T01:28:30.435Z,5.05
2023-09-03T01:31:08.256Z,5.28
2023-09-03T01:33:38.430Z,5.40
2023-09-03T01:36:07.573Z,5.13
2023-09-03T01:38:35.070Z,5.25
2023-09-03T01:41:02.771Z,5.10
2023-09-03T01:43:31.047Z,4.97
2023-09-03T01:46:07.396Z,5.70
2023-09-03T01:48:50.931Z,5.22
2023-09-03T01:51:34.890Z,5.25
2023-09-03T01:54:19.634Z,5.32
2023-09-03T01:57:06.761Z,4.80
2023-09-03T01:59:44.414Z,5.50
2023-09-03T02:02:13.108Z,5.13
2023-09-03T02:04:40.657Z,5.60
2023-09-03T02:07:08.029Z,5.60
2023-09-03T02:09:35.398Z,5.28
2023-09-03T02:12:02.940Z,4.27
2023-09-03T02:14:30.350Z,4.97
2023-09-03T02:16:57.205Z,5.13
2023-09-03T02:19:24.714Z,5.03
2023-09-03T02:21:52.796Z,5.22
2023-09-03T02:24:20.272Z,4.57
2023-09-03T02:26:48.164Z,4.85
2023-09-03T02:29:15.677Z,4.88
2023-09-03T02:31:42.635Z,4.40
2023-09-03T02:34:10.822Z,5.18
2023-09-03T02:36:39.189Z,5.27
2023-09-03T02:39:07.425Z,5.57
2023-09-03T02:41:35.138Z,5.03
2023-09-03T02:44:03.012Z,5.15
2023-09-03T02:46:30.385Z,5.63
2023-09-03T02:48:57.476Z,5.03
2023-09-03T02:51:24.861Z,5.40
2023-09-03T02:53:52.789Z,5.35
2023-09-03T02:56:20.003Z,5.05
2023-09-03T02:58:50.515Z,5.43
2023-09-03T03:01:20.102Z,5.30
2023-09-03T03:03:48.140Z,5.32
2023-09-03T03:06:16.041Z,5.10
2023-09-03T03:08:43.565Z,5.10
2023-09-03T03:11:17.825Z,4.82
2023-09-03T03:13:53.480Z,5.03
2023-09-03T03:16:23.567Z,5.10
2023-09-03T03:19:06.178Z,4.38
2023-09-03T03:21:36.640Z,4.55
2023-09-03T03:24:06.193Z,5.32
2023-09-03T03:26:36.344Z,5.17
2023-09-03T03:29:05.854Z,6.15
2023-09-03T03:31:36.872Z,5.00
2023-09-03T03:34:04.734Z,5.47
2023-09-03T03:36:33.537Z,4.80
2023-09-03T03:39:01.113Z,5.88
2023-09-03T03:41:28.725Z,5.10
2023-09-03T03:43:56.113Z,5.40
2023-09-03T03:46:26.461Z,5.65
2023-09-03T03:48:56.737Z,4.85
2023-09-03T03:51:23.648Z,5.53
2023-09-03T03:53:51.241Z,5.80
2023-09-03T03:56:19.049Z,5.45
2023-09-03T03:58:47.477Z,5.70
2023-09-03T04:01:20.468Z,5.47
2023-09-03T04:03:53.369Z,5.20
2023-09-03T04:06:20.896Z,4.90
2023-09-03T04:08:48.696Z,5.05
2023-09-03T04:11:22.132Z,5.07
2023-09-03T04:13:49.440Z,4.82
2023-09-03T04:16:18.991Z,4.77
2023-09-03T04:18:50.272Z,5.20
2023-09-03T04:21:18.040Z,5.18
2023-09-03T04:23:45.196Z,5.18
2023-09-03T04:26:12.599Z,5.15
2023-09-03T04:28:46.559Z,4.87
2023-09-03T04:31:14.837Z,4.60
2023-09-03T04:33:42.741Z,4.40
2023-09-03T04:36:11.435Z,4.53
2023-09-03T04:38:39.287Z,4.97
2023-09-03T04:41:06.909Z,4.20
2023-09-03T04:44:07.843Z,5.20
2023-09-03T04:46:38.309Z,4.60
2023-09-03T04:49:05.399Z,4.40
2023-09-03T04:51:32.737Z,4.30
2023-09-03T04:53:59.761Z,5.03
2023-09-03T04:56:26.681Z,4.82
2023-09-03T04:58:55.069Z,4.68
2023-09-03T05:01:23.587Z,5.28
2023-09-03T05:03:55.261Z,4.65
2023-09-03T05:06:23.580Z,5.23
2023-09-03T05:08:53.131Z,4.72
2023-09-03T05:11:21.429Z,5.38
2023-09-03T05:13:50.315Z,5.57
2023-09-03T05:16:18.834Z,5.53
2023-09-03T05:18:46.338Z,5.18
2023-09-03T05:21:15.067Z,4.57
2023-09-03T05:23:42.366Z,5.18
2023-09-03T05:26:09.867Z,5.40
2023-09-03T05:28:40.082Z,4.97
2023-09-03T05:31:09.002Z,5.37
2023-09-03T05:33:36.717Z,4.70
2023-09-03T05:36:04.566Z,5.38
2023-09-03T05:38:31.452Z,4.97
2023-09-03T05:41:01.716Z,5.25
2023-09-03T05:43:29.739Z,4.90
2023-09-03T05:45:58.327Z,5.35
2023-09-03T05:48:26.127Z,5.22
2023-09-03T05:51:00.668Z,5.68
2023-09-03T05:53:29.274Z,5.60
2023-09-03T05:56:08.028Z,5.80
2023-09-03T05:58:37.257Z,6.20
2023-09-03T06:01:05.758Z,6.10
2023-09-03T06:03:33.202Z,5.72
2023-09-03T06:06:06.875Z,5.63
2023-09-03T06:08:36.941Z,6.07
2023-09-03T06:11:05.474Z,6.18
2023-09-03T06:13:34.295Z,6.63
2023-09-03T06:16:01.799Z,6.50
2023-09-03T06:18:28.837Z,6.07
2023-09-03T06:20:55.764Z,6.60
2023-09-03T06:23:22.853Z,7.35
2023-09-03T06:25:51.579Z,7.10
2023-09-03T06:28:19.163Z,7.28
2023-09-03T06:30:46.749Z,7.32
2023-09-03T06:33:14.222Z,7.17
2023-09-03T06:35:41.627Z,7.78
2023-09-03T06:38:08.906Z,7.80
2023-09-03T06:40:36.210Z,7.93
2023-09-03T06:43:03.210Z,8.35
2023-09-03T06:45:30.221Z,8.00
2023-09-03T06:47:57.258Z,8.02
2023-09-03T06:50:24.177Z,8.23
2023-09-03T06:52:51.409Z,8.50
2023-09-03T06:55:19.452Z,8.75
2023-09-03T06:57:46.802Z,8.27
2023-09-03T07:00:14.434Z,8.32
2023-09-03T07:02:41.538Z,8.88
2023-09-03T07:05:09.086Z,8.18
2023-09-03T07:07:36.996Z,8.32
2023-09-03T07:10:04.428Z,9.07
2023-09-03T07:12:31.839Z,8.32
2023-09-03T07:14:59.272Z,8.85
2023-09-03T07:17:26.236Z,8.57
2023-09-03T07:19:56.551Z,8.88
2023-09-03T07:22:23.930Z,9.10
2023-09-03T07:24:54.430Z,9.63
2023-09-03T07:27:21.593Z,8.93
2023-09-03T07:29:53.712Z,9.40
2023-09-03T07:32:23.809Z,9.30
2023-09-03T07:34:51.931Z,10.23
2023-09-03T07:37:19.291Z,9.77
2023-09-03T07:39:47.312Z,9.85
2023-09-03T07:42:14.555Z,9.55
2023-09-03T07:44:41.466Z,9.55
2023-09-03T07:47:08.745Z,9.70
2023-09-03T07:49:36.090Z,8.65
2023-09-03T07:52:02.955Z,9.60
2023-09-03T07:54:29.831Z,9.13
2023-09-03T07:56:56.749Z,9.52
2023-09-03T07:59:23.668Z,9.07
2023-09-03T08:01:50.547Z,9.25
2023-09-03T08:04:17.561Z,7.85
2023-09-03T08:06:44.796Z,8.65
2023-09-03T08:09:12.169Z,8.13
2023-09-03T08:11:39.627Z,8.85
2023-09-03T08:14:07.192Z,8.18
2023-09-03T08:16:34.561Z,8.20
2023-09-03T08:19:01.532Z,8.20
2023-09-03T08:21:28.348Z,8.52
2023-09-03T08:23:55.612Z,7.75
2023-09-03T08:26:22.541Z,7.40
2023-09-03T08:28:49.391Z,7.60
2023-09-03T08:31:16.377Z,7.25
2023-09-03T08:33:43.719Z,7.80
2023-09-03T08:36:10.977Z,7.13
2023-09-03T08:38:38.252Z,6.15
2023-09-03T08:41:05.525Z,6.35
2023-09-03T08:43:32.655Z,6.32
2023-09-03T08:46:08.668Z,6.00
2023-09-03T08:48:36.200Z,6.78
2023-09-03T08:51:03.961Z,5.18
2023-09-03T08:53:32.917Z,5.60
2023-09-03T08:56:00.257Z,6.40
2023-09-03T08:58:27.646Z,5.40
2023-09-03T09:00:57.107Z,5.00
2023-09-03T09:03:29.122Z,5.05
2023-09-03T09:05:56.673Z,4.05
2023-09-03T09:08:24.922Z,4.30
2023-09-03T09:10:54.437Z,4.30
2023-09-03T09:13:25.543Z,5.22
2023-09-03T09:15:52.821Z,4.88
2023-09-03T09:18:20.232Z,4.85
2023-09-03T09:20:48.810Z,3.95
2023-09-03T09:23:22.049Z,3.85
2023-09-03T09:25:49.601Z,3.67
2023-09-03T09:28:16.530Z,3.40
2023-09-03T09:30:59.778Z,4.07
2023-09-03T09:33:28.125Z,4.00
2023-09-03T09:35:55.729Z,3.10
2023-09-03T09:38:35.667Z,2.63
2023-09-03T09:41:25.054Z,3.27
2023-09-03T09:43:52.619Z,2.95
2023-09-03T09:46:30.647Z,2.80
2023-09-03T09:49:01.863Z,3.50
2023-09-03T09:51:30.341Z,3.65
2023-09-03T09:54:02.298Z,3.50
2023-09-03T09:56:30.672Z,3.03
2023-09-03T09:59:00.787Z,3.22
2023-09-03T10:01:41.696Z,3.38
2023-09-03T10:04:09.009Z,3.08
2023-09-03T10:06:37.572Z,3.10
2023-09-03T10:09:06.276Z,3.15
2023-09-03T10:11:33.191Z,3.55
2023-09-03T10:14:00.041Z,3.00
2023-09-03T10:16:27.696Z,3.08
2023-09-03T10:18:56.258Z,2.83
2023-09-03T10:21:42.295Z,3.40
2023-09-03T10:24:16.333Z,2.47
2023-09-03T10:26:47.108Z,2.95
2023-09-03T10:29:18.501Z,2.97
2023-09-03T10:31:46.196Z,2.90
2023-09-03T10:34:16.148Z,2.28
2023-09-03T10:37:06.118Z,2.60
2023-09-03T10:39:33.900Z,2.80
2023-09-03T10:42:19.371Z,2.50
2023-09-03T10:44:52.100Z,2.63
2023-09-03T10:47:19.709Z,2.20
2023-09-03T10:49:49.347Z,2.10
2023-09-03T10:52:29.473Z,2.30
2023-09-03T10:55:17.365Z,2.20
2023-09-03T10:57:49.336Z,2.20
2023-09-03T11:00:25.364Z,2.13
2023-09-03T11:03:16.275Z,2.00
2023-09-03T11:06:05.158Z,1.95
2023-09-03T11:08:35.636Z,1.98
2023-09-03T11:11:02.986Z,1.90
2023-09-03T11:13:37.741Z,2.15
2023-09-03T11:16:05.767Z,2.00
2023-09-03T11:18:33.844Z,2.00
2023-09-03T11:21:02.253Z,2.00
2023-09-03T11:23:33.930Z,2.03
2023-09-03T11:26:04.579Z,1.77
2023-09-03T11:28:37.172Z,1.90
2023-09-03T11:31:04.824Z,1.98
2023-09-03T11:33:32.025Z,2.00
2023-09-03T11:36:01.235Z,1.70
2023-09-03T11:38:28.549Z,1.75
2023-09-03T11:40:59.940Z,2.10
2023-09-03T11:43:32.463Z,1.90
2023-09-03T11:46:05.256Z,1.80
2023-09-03T11:48:33.449Z,1.80
2023-09-03T11:51:00.457Z,1.48
2023-09-03T11:53:39.594Z,1.60
2023-09-03T11:56:07.916Z,1.92
2023-09-03T11:58:35.100Z,2.00
2023-09-03T12:01:02.383Z,2.20
2023-09-03T12:03:29.430Z,1.90
2023-09-03T12:05:56.528Z,1.60
2023-09-03T12:08:23.495Z,2.22
2023-09-03T12:10:51.443Z,2.00
2023-09-03T12:13:31.462Z,2.00
2023-09-03T12:16:12.651Z,1.90
2023-09-03T12:18:40.260Z,2.20
2023-09-03T12:21:09.575Z,2.08
2023-09-03T12:23:38.279Z,2.17
2023-09-03T12:26:06.235Z,2.00
2023-09-03T12:28:38.471Z,2.20
2023-09-03T12:31:08.700Z,2.60
2023-09-03T12:33:38.524Z,3.13
2023-09-03T12:36:13.281Z,2.83
2023-09-03T12:38:55.373Z,2.60
2023-09-03T12:41:23.737Z,3.00
2023-09-03T12:43:50.938Z,3.40
2023-09-03T12:46:17.987Z,2.97
2023-09-03T12:48:45.727Z,2.75
2023-09-03T12:51:17.468Z,2.67
2023-09-03T12:53:46.116Z,3.47
2023-09-03T12:56:13.609Z,2.90
2023-09-03T12:58:41.044Z,3.05
2023-09-03T13:01:09.609Z,2.88
2023-09-03T13:03:36.982Z,2.80
2023-09-03T13:06:04.171Z,2.42
2023-09-03T13:08:33.308Z,2.50
2023-09-03T13:11:01.384Z,2.95
2023-09-03T13:13:29.490Z,2.85
2023-09-03T13:15:56.743Z,2.83
2023-09-03T13:18:23.818Z,2.80
2023-09-03T13:20:50.765Z,2.70
2023-09-03T13:23:18.016Z,2.70
2023-09-03T13:25:44.976Z,2.50
2023-09-03T13:28:13.293Z,3.20
2023-09-03T13:30:45.284Z,2.70
2023-09-03T13:33:21.013Z,2.20
2023-09-03T13:35:55.030Z,2.72
2023-09-03T13:38:22.342Z,2.58
2023-09-03T13:40:54.032Z,2.60
2023-09-03T13:43:24.364Z,2.88
2023-09-03T13:46:00.510Z,2.72
2023-09-03T13:48:28.261Z,2.47
2023-09-03T13:50:58.054Z,2.38
2023-09-03T13:53:25.380Z,2.60
2023-09-03T13:55:52.516Z,2.50
2023-09-03T13:58:19.883Z,2.40
2023-09-03T14:00:47.115Z,2.30
2023-09-03T14:03:14.200Z,2.30
2023-09-03T14:05:41.345Z,2.50
2023-09-03T14:08:08.299Z,2.60
2023-09-03T14:10:35.206Z,2.30
2023-09-03T14:13:02.313Z,2.08
2023-09-03T14:15:32.289Z,2.53
2023-09-03T14:17:59.209Z,2.10
2023-09-03T14:20:26.196Z,2.40
2023-09-03T14:22:54.529Z,2.20
2023-09-03T14:25:23.221Z,2.30
2023-09-03T14:27:50.584Z,2.35
2023-09-03T14:30:17.756Z,2.50
2023-09-03T14:32:44.627Z,2.33
2023-09-03T14:35:11.699Z,2.25
2023-09-03T14:37:38.685Z,2.45
2023-09-03T14:40:06.871Z,2.30
2023-09-03T14:42:33.820Z,2.10
2023-09-03T14:45:00.900Z,2.10
2023-09-03T14:47:27.973Z,2.30
2023-09-03T14:49:55.027Z,2.10
2023-09-03T14:52:21.987Z,2.08
2023-09-03T14:54:48.823Z,2.17
2023-09-03T14:57:15.732Z,1.80
2023-09-03T14:59:42.823Z,1.98
2023-09-03T15:02:09.827Z,1.85
2023-09-03T15:04:36.920Z,1.83
2023-09-03T15:07:04.191Z,1.77
2023-09-03T15:09:31.098Z,1.80
2023-09-03T15:11:58.002Z,1.80
2023-09-03T15:14:24.987Z,1.67
2023-09-03T15:16:51.950Z,1.83
2023-09-03T15:19:20.521Z,1.70
2023-09-03T15:21:48.550Z,1.70
2023-09-03T15:24:16.307Z,2.17
2023-09-03T15:26:45.643Z,1.63
2023-09-03T15:29:12.736Z,1.77
2023-09-03T15:31:39.789Z,1.73
2023-09-03T15:34:09.874Z,1.90
2023-09-03T15:36:36.843Z,1.70
2023-09-03T15:39:04.102Z,1.85
2023-09-03T15:41:31.174Z,1.77
2023-09-03T15:44:02.141Z,2.00
2023-09-03T15:46:29.260Z,1.90
2023-09-03T15:48:56.570Z,1.83
2023-09-03T15:51:23.520Z,1.92
2023-09-03T15:53:50.372Z,1.77
2023-09-03T15:56:17.271Z,1.83
2023-09-03T15:58:44.231Z,1.90
2023-09-03T16:01:13.221Z,2.20
2023-09-03T16:03:40.362Z,1.90
2023-09-03T16:06:07.938Z,2.05
2023-09-03T16:08:35.118Z,2.00
2023-09-03T16:11:11.158Z,1.98
2023-09-03T16:13:38.187Z,1.90
2023-09-03T16:16:09.018Z,2.50
2023-09-03T16:18:36.192Z,2.20
2023-09-03T16:21:03.128Z,2.17
2023-09-03T16:23:30.001Z,2.20
2023-09-03T16:25:56.913Z,3.13
2023-09-03T16:28:24.188Z,2.10
2023-09-03T16:30:58.041Z,2.10
2023-09-03T16:33:25.061Z,2.20
2023-09-03T16:35:52.159Z,1.95
2023-09-03T16:38:19.039Z,2.10
2023-09-03T16:40:45.979Z,1.90
2023-09-03T16:43:12.921Z,1.98
2023-09-03T16:45:42.922Z,1.90
2023-09-03T16:48:09.817Z,1.88
2023-09-03T16:50:36.786Z,2.08
2023-09-03T16:53:03.859Z,2.17
2023-09-03T16:55:31.894Z,2.22
2023-09-03T16:57:58.771Z,2.30
2023-09-03T17:00:25.981Z,2.15
2023-09-03T17:02:54.011Z,1.98
2023-09-03T17:05:22.639Z,2.20
2023-09-03T17:07:49.628Z,2.30
2023-09-03T17:10:17.923Z,2.20
2023-09-03T17:12:44.873Z,2.28
2023-09-03T17:15:12.107Z,2.03
2023-09-03T17:17:40.925Z,2.35
2023-09-03T17:20:09.677Z,2.30
2023-09-03T17:22:36.690Z,2.10
2023-09-03T17:25:03.886Z,2.30
2023-09-03T17:27:30.745Z,2.30
2023-09-03T17:29:57.649Z,2.85
2023-09-03T17:32:24.777Z,2.35
2023-09-03T17:34:52.480Z,3.00
2023-09-03T17:37:19.456Z,2.88
2023-09-03T17:39:46.346Z,3.28
2023-09-03T17:42:13.699Z,2.80
2023-09-03T17:44:40.633Z,3.08
2023-09-03T17:47:07.559Z,2.63
2023-09-03T17:49:34.464Z,2.90
2023-09-03T17:52:01.410Z,2.53
2023-09-03T17:54:28.296Z,3.00
2023-09-03T17:56:55.605Z,3.00
2023-09-03T17:59:22.448Z,2.63
2023-09-03T18:01:49.389Z,2.70
2023-09-03T18:04:16.422Z,2.75
2023-09-03T18:06:43.367Z,2.75
2023-09-03T18:09:11.549Z,2.63
2023-09-03T18:11:38.421Z,2.40
2023-09-03T18:14:05.351Z,2.30
2023-09-03T18:16:33.733Z,2.58
2023-09-03T18:19:00.682Z,2.65
2023-09-03T18:21:27.507Z,2.88
2023-09-03T18:23:54.919Z,3.20
2023-09-03T18:26:23.840Z,3.03
2023-09-03T18:28:50.846Z,3.33
2023-09-03T18:31:17.982Z,3.15
2023-09-03T18:33:44.994Z,3.10
2023-09-03T18:36:12.086Z,3.23
2023-09-03T18:38:39.098Z,3.13
2023-09-03T18:41:06.009Z,3.28
2023-09-03T18:43:33.121Z,3.22
2023-09-03T18:46:00.879Z,3.00
2023-09-03T18:48:27.846Z,3.10
2023-09-03T18:50:54.853Z,2.90
2023-09-03T18:53:23.255Z,3.55
2023-09-03T18:55:50.331Z,3.65
2023-09-03T18:58:17.268Z,4.22
2023-09-03T19:00:44.194Z,3.50
2023-09-03T19:03:11.122Z,3.38
2023-09-03T19:05:42.565Z,2.92
2023-09-03T19:08:09.522Z,3.35
2023-09-03T19:10:36.789Z,3.20
2023-09-03T19:13:07.141Z,3.40
2023-09-03T19:15:40.785Z,3.40
2023-09-03T19:18:09.473Z,3.65
2023-09-03T19:20:37.621Z,2.88
2023-09-03T19:23:06.535Z,3.08
2023-09-03T19:25:39.676Z,2.70
2023-09-03T19:28:07.004Z,2.70
2023-09-03T19:30:34.042Z,2.60
2023-09-03T19:33:00.970Z,2.88
2023-09-03T19:35:28.567Z,2.75
2023-09-03T19:37:55.945Z,2.60
2023-09-03T19:40:23.315Z,2.63
2023-09-03T19:42:53.430Z,2.70
2023-09-03T19:45:20.981Z,2.50
2023-09-03T19:47:47.985Z,2.50
2023-09-03T19:50:15.517Z,3.00
2023-09-03T19:52:43.216Z,2.88
2023-09-03T19:55:10.421Z,2.55
2023-09-03T19:57:37.747Z,2.97
2023-09-03T20:00:06.471Z,2.70
2023-09-03T20:02:38.031Z,2.63
2023-09-03T20:05:05.530Z,2.65
2023-09-03T20:07:32.406Z,2.75
2023-09-03T20:09:59.674Z,2.78
2023-09-03T20:12:26.491Z,2.80
2023-09-03T20:14:53.833Z,2.88
2023-09-03T20:17:20.770Z,3.00
2023-09-03T20:19:48.146Z,4.50
2023-09-03T20:22:15.425Z,4.88
2023-09-03T20:24:42.818Z,4.55
2023-09-03T20:27:12.646Z,4.53
2023-09-03T20:29:41.714Z,5.65
2023-09-03T20:32:11.337Z,5.85
2023-09-03T20:34:43.531Z,6.25
2023-09-03T20:37:11.285Z,5.35
2023-09-03T20:39:41.031Z,4.97
2023-09-03T20:42:08.830Z,4.38
2023-09-03T20:44:35.776Z,3.63
2023-09-03T20:47:02.682Z,3.30
2023-09-03T20:49:29.622Z,3.75
2023-09-03T20:51:56.547Z,3.03
2023-09-03T20:54:23.491Z,3.10
2023-09-03T20:56:50.814Z,2.92
2023-09-03T20:59:17.718Z,3.10
2023-09-03T21:01:44.589Z,3.20
2023-09-03T21:04:11.500Z,2.78
2023-09-03T21:06:38.426Z,3.58
2023-09-03T21:09:05.482Z,3.40
2023-09-03T21:11:36.524Z,3.28
2023-09-03T21:14:03.970Z,3.00
2023-09-03T21:16:31.854Z,3.20
2023-09-03T21:18:59.343Z,3.35
2023-09-03T21:21:28.404Z,3.10
2023-09-03T21:23:55.717Z,3.30
2023-09-03T21:26:24.677Z,3.40
2023-09-03T21:28:51.548Z,3.10
2023-09-03T21:31:19.463Z,3.22
2023-09-03T21:33:50.484Z,3.30
2023-09-03T21:36:21.930Z,3.53
2023-09-03T21:38:50.259Z,3.50
2023-09-03T21:41:17.467Z,3.28
2023-09-03T21:43:46.295Z,2.97
2023-09-03T21:46:13.646Z,3.35
2023-09-03T21:48:41.055Z,3.53
2023-09-03T21:51:18.627Z,3.13
2023-09-03T21:53:47.183Z,3.72
2023-09-03T21:56:14.669Z,3.33
2023-09-03T21:58:42.178Z,3.40
2023-09-03T22:01:09.450Z,3.85
2023-09-03T22:03:36.457Z,3.75
2023-09-03T22:06:05.632Z,3.80
2023-09-03T22:08:33.783Z,4.30
2023-09-03T22:11:01.379Z,3.78
2023-09-03T22:13:30.426Z,4.07
2023-09-03T22:15:58.088Z,3.95
2023-09-03T22:18:25.602Z,4.10
2023-09-03T22:20:53.183Z,3.63
2023-09-03T22:23:20.478Z,4.00
2023-09-03T22:25:48.112Z,3.92
2023-09-03T22:28:14.994Z,4.30
2023-09-03T22:30:42.261Z,4.10
2023-09-03T22:33:09.609Z,3.72
2023-09-03T22:35:36.895Z,3.92
2023-09-03T22:38:04.214Z,3.80
2023-09-03T22:40:31.737Z,3.40
2023-09-03T22:42:59.173Z,3.88
2023-09-03T22:45:26.686Z,3.60
2023-09-03T22:47:54.063Z,3.90
2023-09-03T22:50:20.977Z,3.47
2023-09-03T22:52:48.273Z,3.78
2023-09-03T22:55:15.749Z,3.78
2023-09-03T22:57:42.721Z,4.07
2023-09-03T23:00:10.674Z,3.60
2023-09-03T23:02:38.076Z,4.15
2023-09-03T23:05:05.891Z,3.80
2023-09-03T23:07:32.985Z,3.92
2023-09-03T23:10:02.310Z,3.83
2023-09-03T23:12:29.891Z,4.20
2023-09-03T23:14:56.834Z,4.18
2023-09-03T23:17:24.133Z,4.22
2023-09-03T23:19:51.419Z,4.47
2023-09-03T23:22:18.380Z,3.85
2023-09-03T23:24:45.637Z,4.05
2023-09-03T23:27:12.884Z,3.78
2023-09-03T23:29:44.365Z,4.30
2023-09-03T23:32:11.380Z,4.22
2023-09-03T23:34:38.819Z,4.35
2023-09-03T23:37:06.418Z,4.18
2023-09-03T23:39:34.414Z,4.40
2023-09-03T23:42:01.537Z,4.15
2023-09-03T23:44:28.874Z,4.05
2023-09-03T23:47:06.649Z,3.95
2023-09-03T23:49:40.105Z,3.95
2023-09-03T23:52:08.192Z,4.43
2023-09-03T23:54:35.260Z,4.53
2023-09-03T23:57:02.609Z,4.22
2023-09-03T23:59:30.802Z,4.13
